Time;durP1;ratioP1;P1;durP2;ratioP2;P2;SDS_P1;SDS_P2;PMS_P1;PMS_P2;Temp;Humidity;BMP_temperature;BMP_pressure;BME280_temperature;BME280_humidity;BME280_pressure;Samples;Min_cycle;Max_cycle;Signal;HPM_P1;HPM_P2
2024/02/09 00:00:07;;;;;;;60.30;24.77;;;;;;;;;;5048271;28;25068;-75
2024/02/09 00:02:40;;;;;;;40.97;19.35;;;;;;;;;;5052336;28;25062;-72
2024/02/09 00:05:07;;;;;;;41.03;19.10;;;;;;;;;;5075955;28;25099;-73
2024/02/09 00:07:33;;;;;;;63.58;23.92;;;;;;;;;;5068645;28;25048;-75
2024/02/09 00:09:59;;;;;;;42.30;18.40;;;;;;;;;;5065406;28;25081;-74
2024/02/09 00:12:25;;;;;;;45.55;19.45;;;;;;;;;;5064388;28;25068;-74
2024/02/09 00:14:52;;;;;;;48.75;19.50;;;;;;;;;;5067105;28;25175;-74
2024/02/09 00:17:18;;;;;;;35.88;15.98;;;;;;;;;;5061254;28;25084;-75
2024/02/09 00:19:46;;;;;;;43.35;19.83;;;;;;;;;;5069810;28;25140;-76
2024/02/09 00:22:13;;;;;;;39.40;17.40;;;;;;;;;;5062372;28;25051;-73
2024/02/09 00:24:42;;;;;;;33.53;17.13;;;;;;;;;;5070156;28;25072;-74
2024/02/09 00:27:14;;;;;;;39.30;17.40;;;;;;;;;;5059868;28;25159;-74
2024/02/09 00:29:40;;;;;;;50.15;20.45;;;;;;;;;;5070684;28;25183;-75
2024/02/09 00:32:06;;;;;;;40.78;17.42;;;;;;;;;;5068042;28;25066;-75
2024/02/09 00:34:34;;;;;;;41.70;19.13;;;;;;;;;;5068017;28;25074;-75
2024/02/09 00:37:00;;;;;;;47.83;17.85;;;;;;;;;;5070812;28;25054;-74
2024/02/09 00:39:33;;;;;;;43.53;17.88;;;;;;;;;;5067785;28;25098;-74
2024/02/09 00:41:59;;;;;;;41.22;17.20;;;;;;;;;;5063233;28;25056;-74
2024/02/09 00:44:25;;;;;;;35.25;16.83;;;;;;;;;;5069883;28;25069;-75
2024/02/09 00:46:51;;;;;;;42.92;17.60;;;;;;;;;;5075147;28;25079;-73
2024/02/09 00:49:18;;;;;;;34.05;14.55;;;;;;;;;;5068551;28;25064;-74
2024/02/09 00:51:44;;;;;;;39.13;17.08;;;;;;;;;;5064665;28;25092;-73
2024/02/09 00:54:14;;;;;;;46.88;18.70;;;;;;;;;;5063597;28;25072;-75
2024/02/09 00:56:40;;;;;;;38.58;16.38;;;;;;;;;;5066118;28;25097;-73
2024/02/09 00:59:06;;;;;;;31.60;15.57;;;;;;;;;;5064681;28;25065;-73
2024/02/09 01:01:32;;;;;;;32.28;14.68;;;;;;;;;;5069905;28;25078;-73
2024/02/09 01:04:00;;;;;;;26.90;12.55;;;;;;;;;;5081110;28;25091;-73
2024/02/09 01:06:26;;;;;;;29.63;12.55;;;;;;;;;;5079168;28;25066;-72
2024/02/09 01:08:52;;;;;;;36.45;13.60;;;;;;;;;;5075320;28;25075;-75
2024/02/09 01:11:19;;;;;;;22.67;11.05;;;;;;;;;;5068558;28;25067;-74
2024/02/09 02:46:48;;;;;;;27.90;13.32;;;;;;;;;;5065608;28;25075;-75
2024/02/09 03:05:43;;;;;;;32.42;12.13;;;;;;;;;;5067766;28;25117;-74
2024/02/09 03:08:10;;;;;;;32.80;13.25;;;;;;;;;;5066094;28;25071;-73
2024/02/09 03:10:36;;;;;;;30.02;13.80;;;;;;;;;;5056372;28;25047;-72
2024/02/09 03:13:07;;;;;;;33.78;13.45;;;;;;;;;;5067238;28;25155;-73
2024/02/09 03:15:34;;;;;;;24.90;10.95;;;;;;;;;;5062878;28;25067;-75
2024/02/09 03:18:04;;;;;;;26.33;12.73;;;;;;;;;;5070266;28;25134;-75
2024/02/09 03:20:31;;;;;;;26.13;11.98;;;;;;;;;;5061582;28;25109;-74
2024/02/09 03:23:01;;;;;;;22.67;9.15;;;;;;;;;;5062701;28;25203;-74
2024/02/09 03:25:28;;;;;;;28.38;12.15;;;;;;;;;;5053441;28;25125;-74
2024/02/09 03:27:54;;;;;;;19.15;10.68;;;;;;;;;;5054486;28;25067;-74
2024/02/09 03:30:20;;;;;;;24.95;11.05;;;;;;;;;;5066451;28;25063;-76
2024/02/09 03:32:46;;;;;;;25.25;9.70;;;;;;;;;;5058056;28;25105;-75
2024/02/09 03:35:12;;;;;;;20.40;10.15;;;;;;;;;;5063981;28;25201;-73
2024/02/09 03:37:42;;;;;;;16.73;9.38;;;;;;;;;;5061468;28;25071;-73
2024/02/09 03:40:08;;;;;;;24.13;9.20;;;;;;;;;;5064401;28;25050;-75
2024/02/09 03:42:34;;;;;;;26.73;9.20;;;;;;;;;;5062419;28;25070;-73
2024/02/09 03:45:00;;;;;;;18.25;8.50;;;;;;;;;;5071009;28;25080;-75
2024/02/09 03:47:27;;;;;;;24.27;9.88;;;;;;;;;;5063626;28;25068;-75
2024/02/09 03:49:57;;;;;;;15.40;8.60;;;;;;;;;;5068015;28;25094;-73
2024/02/09 03:52:23;;;;;;;22.98;9.63;;;;;;;;;;5077946;28;25146;-73
2024/02/09 03:54:51;;;;;;;16.25;7.93;;;;;;;;;;5079094;28;25047;-73
2024/02/09 03:57:17;;;;;;;16.85;7.97;;;;;;;;;;5073406;28;25066;-75
2024/02/09 03:59:43;;;;;;;12.60;6.90;;;;;;;;;;5078421;28;25067;-75
2024/02/09 04:02:10;;;;;;;22.00;9.65;;;;;;;;;;5083899;28;25052;-74
2024/02/09 04:04:36;;;;;;;15.30;7.57;;;;;;;;;;5066198;28;25078;-76
2024/02/09 04:07:06;;;;;;;12.73;7.32;;;;;;;;;;5057827;28;25190;-75
2024/02/09 04:09:38;;;;;;;9.02;6.47;;;;;;;;;;5064152;28;25063;-75
2024/02/09 04:12:04;;;;;;;15.15;8.02;;;;;;;;;;5057434;28;25084;-75
2024/02/09 04:14:30;;;;;;;15.23;8.10;;;;;;;;;;5063519;28;25071;-73
2024/02/09 04:16:57;;;;;;;12.23;8.57;;;;;;;;;;5058776;28;25064;-79
2024/02/09 04:19:24;;;;;;;11.77;8.15;;;;;;;;;;5076109;28;25051;-75
2024/02/09 04:21:50;;;;;;;14.20;9.10;;;;;;;;;;5059202;28;25049;-79
2024/02/09 04:24:20;;;;;;;13.43;8.30;;;;;;;;;;5064332;28;25083;-78
2024/02/09 04:26:47;;;;;;;16.58;9.90;;;;;;;;;;5069685;28;25102;-76
2024/02/09 04:29:15;;;;;;;17.45;9.10;;;;;;;;;;5066375;28;25066;-75
2024/02/09 04:31:41;;;;;;;16.02;9.40;;;;;;;;;;5067649;28;25050;-74
2024/02/09 04:34:07;;;;;;;14.60;8.48;;;;;;;;;;5085778;28;25133;-73
2024/02/09 04:36:34;;;;;;;14.15;8.13;;;;;;;;;;5087708;28;25066;-73
2024/02/09 04:39:00;;;;;;;18.50;9.43;;;;;;;;;;5080609;28;25085;-74
2024/02/09 04:41:26;;;;;;;16.65;9.82;;;;;;;;;;5066132;28;25064;-73
2024/02/09 04:43:52;;;;;;;16.50;8.27;;;;;;;;;;5067977;28;25042;-73
2024/02/09 04:46:24;;;;;;;14.60;8.18;;;;;;;;;;5055189;28;25095;-72
2024/02/09 04:48:53;;;;;;;17.08;9.45;;;;;;;;;;5056598;28;25080;-73
2024/02/09 04:51:19;;;;;;;11.90;8.10;;;;;;;;;;5058279;28;25182;-74
2024/02/09 04:53:45;;;;;;;14.40;8.13;;;;;;;;;;5058182;28;25159;-74
2024/02/09 04:56:11;;;;;;;12.98;8.00;;;;;;;;;;5060758;28;25057;-75
2024/02/09 04:58:37;;;;;;;18.48;7.80;;;;;;;;;;5053018;28;25072;-74
2024/02/09 05:01:04;;;;;;;12.73;6.95;;;;;;;;;;5058019;28;25055;-74
2024/02/09 05:03:33;;;;;;;15.05;7.20;;;;;;;;;;5062527;28;25159;-73
2024/02/09 05:05:59;;;;;;;12.80;7.47;;;;;;;;;;5049873;28;25134;-74
2024/02/09 05:08:25;;;;;;;21.20;7.65;;;;;;;;;;5059579;28;25096;-73
2024/02/09 05:10:51;;;;;;;13.35;5.82;;;;;;;;;;5057320;28;25054;-73
2024/02/09 05:13:17;;;;;;;12.20;7.15;;;;;;;;;;5057137;28;25140;-74
2024/02/09 05:15:43;;;;;;;13.40;7.53;;;;;;;;;;5047451;28;25146;-74
2024/02/09 05:18:13;;;;;;;14.38;7.22;;;;;;;;;;5056200;28;25169;-75
2024/02/09 05:20:39;;;;;;;17.42;7.53;;;;;;;;;;5060109;28;25080;-75
2024/02/09 05:23:05;;;;;;;22.05;8.32;;;;;;;;;;5048156;28;25068;-75
2024/02/09 05:25:34;;;;;;;13.30;6.95;;;;;;;;;;5051540;28;25068;-75
2024/02/09 05:28:00;;;;;;;14.70;6.50;;;;;;;;;;5053778;28;25110;-75
2024/02/09 05:30:29;;;;;;;12.57;7.10;;;;;;;;;;5052731;28;25069;-77
2024/02/09 05:32:55;;;;;;;12.45;6.35;;;;;;;;;;5047448;28;25094;-77
2024/02/09 05:35:21;;;;;;;18.23;7.25;;;;;;;;;;5058617;28;25056;-77
2024/02/09 05:37:47;;;;;;;11.93;6.57;;;;;;;;;;5060789;28;25109;-75
2024/02/09 05:40:16;;;;;;;16.67;6.13;;;;;;;;;;5062355;28;25134;-75
2024/02/09 05:42:42;;;;;;;14.30;6.68;;;;;;;;;;5049120;28;25115;-75
2024/02/09 05:45:08;;;;;;;18.85;6.10;;;;;;;;;;5050867;28;25055;-76
2024/02/09 05:47:34;;;;;;;16.35;6.47;;;;;;;;;;5055828;28;25135;-76
2024/02/09 05:50:00;;;;;;;16.70;6.57;;;;;;;;;;5050994;28;25060;-76
2024/02/09 05:52:27;;;;;;;12.40;5.97;;;;;;;;;;5057042;28;25063;-76
2024/02/09 05:54:54;;;;;;;18.00;6.97;;;;;;;;;;5052200;28;25063;-75
2024/02/09 05:57:20;;;;;;;18.13;6.25;;;;;;;;;;5067467;28;25135;-75
2024/02/09 05:59:46;;;;;;;16.25;6.18;;;;;;;;;;5051473;28;25058;-76
2024/02/09 06:02:12;;;;;;;15.10;6.18;;;;;;;;;;5059432;28;25160;-76
2024/02/09 06:04:38;;;;;;;13.45;6.47;;;;;;;;;;5054366;28;25179;-77
2024/02/09 06:07:04;;;;;;;17.33;6.90;;;;;;;;;;5065667;28;25086;-76
2024/02/09 06:09:30;;;;;;;17.98;6.50;;;;;;;;;;5061630;28;25130;-75
2024/02/09 06:11:58;;;;;;;12.57;6.05;;;;;;;;;;5065325;28;25158;-78
2024/02/09 06:14:25;;;;;;;13.10;5.10;;;;;;;;;;5060725;28;25061;-77
2024/02/09 06:16:51;;;;;;;15.13;6.35;;;;;;;;;;5059511;28;25056;-75
2024/02/09 06:19:20;;;;;;;15.68;5.45;;;;;;;;;;5063230;28;25074;-76
2024/02/09 06:21:46;;;;;;;14.27;5.43;;;;;;;;;;5062919;28;25094;-76
2024/02/09 06:24:12;;;;;;;11.02;5.00;;;;;;;;;;5062280;28;25072;-75
2024/02/09 06:26:38;;;;;;;19.50;5.78;;;;;;;;;;5063581;28;25118;-78
2024/02/09 06:29:04;;;;;;;15.23;5.15;;;;;;;;;;5060431;28;25102;-75
2024/02/09 06:31:31;;;;;;;10.50;5.45;;;;;;;;;;5059247;28;25119;-78
2024/02/09 06:33:58;;;;;;;11.75;5.75;;;;;;;;;;5063589;28;25108;-77
2024/02/09 06:36:25;;;;;;;12.23;5.50;;;;;;;;;;5068742;28;25150;-78
2024/02/09 06:38:53;;;;;;;12.13;6.13;;;;;;;;;;5066915;28;25080;-76
2024/02/09 06:41:19;;;;;;;16.88;5.88;;;;;;;;;;5069282;28;25073;-75
2024/02/09 06:43:45;;;;;;;21.52;6.40;;;;;;;;;;5061312;28;25063;-75
2024/02/09 06:46:11;;;;;;;14.90;5.45;;;;;;;;;;5063234;28;25056;-75
2024/02/09 06:48:37;;;;;;;12.98;5.63;;;;;;;;;;5062980;28;25080;-75
2024/02/09 06:51:05;;;;;;;22.20;6.30;;;;;;;;;;5068280;28;25047;-75
2024/02/09 06:53:31;;;;;;;12.80;5.18;;;;;;;;;;5059358;28;25119;-76
2024/02/09 06:55:58;;;;;;;13.90;6.38;;;;;;;;;;5060870;28;25040;-74
2024/02/09 06:58:24;;;;;;;13.43;5.80;;;;;;;;;;5066549;28;25101;-76
2024/02/09 07:00:53;;;;;;;15.20;6.47;;;;;;;;;;5066077;28;25140;-76
2024/02/09 07:03:21;;;;;;;18.35;6.45;;;;;;;;;;5071054;28;25069;-74
2024/02/09 07:05:51;;;;;;;18.73;5.47;;;;;;;;;;5066183;28;25088;-75
2024/02/09 07:08:26;;;;;;;13.63;6.07;;;;;;;;;;5073462;28;25074;-74
2024/02/09 07:10:52;;;;;;;13.18;5.45;;;;;;;;;;5067155;28;25152;-75
2024/02/09 07:13:18;;;;;;;16.38;5.93;;;;;;;;;;5053399;28;25072;-76
2024/02/09 07:15:44;;;;;;;15.35;5.85;;;;;;;;;;5057908;28;25108;-76
2024/02/09 07:18:10;;;;;;;17.00;6.10;;;;;;;;;;5067328;28;25143;-76
2024/02/09 07:20:36;;;;;;;12.93;6.20;;;;;;;;;;5058174;28;25102;-76
2024/02/09 07:23:05;;;;;;;15.13;5.95;;;;;;;;;;5049344;28;25100;-75
2024/02/09 07:25:35;;;;;;;17.05;5.63;;;;;;;;;;5059885;28;25119;-76
2024/02/09 07:28:01;;;;;;;9.90;5.70;;;;;;;;;;5061936;28;25136;-76
2024/02/09 07:30:27;;;;;;;14.27;5.82;;;;;;;;;;5055291;28;25086;-76
2024/02/09 07:32:53;;;;;;;17.30;6.60;;;;;;;;;;5050581;28;25050;-74
2024/02/09 07:35:20;;;;;;;10.85;6.07;;;;;;;;;;5055337;28;25057;-77
2024/02/09 07:37:46;;;;;;;12.00;5.68;;;;;;;;;;5057607;28;25073;-76
2024/02/09 07:40:16;;;;;;;15.48;6.93;;;;;;;;;;5060002;28;25070;-75
2024/02/09 07:42:43;;;;;;;14.32;5.85;;;;;;;;;;5059022;28;25079;-75
2024/02/09 07:45:12;;;;;;;16.63;6.35;;;;;;;;;;5055468;28;25068;-74
2024/02/09 07:47:38;;;;;;;14.13;6.38;;;;;;;;;;5067604;28;25090;-75
2024/02/09 07:50:05;;;;;;;12.07;6.18;;;;;;;;;;5058008;28;25043;-76
2024/02/09 07:52:38;;;;;;;11.00;5.72;;;;;;;;;;5064907;28;25081;-75
2024/02/09 07:55:04;;;;;;;17.08;7.53;;;;;;;;;;5073730;28;25079;-75
2024/02/09 07:57:30;;;;;;;13.02;5.18;;;;;;;;;;5064308;28;25055;-76
2024/02/09 07:59:56;;;;;;;14.82;6.18;;;;;;;;;;5066522;28;25075;-77
2024/02/09 08:02:22;;;;;;;13.82;6.32;;;;;;;;;;5066138;28;25071;-76
2024/02/09 08:04:48;;;;;;;14.90;6.80;;;;;;;;;;5071019;28;25055;-77
2024/02/09 08:07:15;;;;;;;12.30;6.25;;;;;;;;;;5069402;28;25092;-77
2024/02/09 08:09:41;;;;;;;13.90;6.53;;;;;;;;;;5067234;28;25058;-78
2024/02/09 08:12:07;;;;;;;16.58;6.85;;;;;;;;;;5055118;28;25057;-77
2024/02/09 08:14:36;;;;;;;11.07;6.20;;;;;;;;;;5059040;28;25054;-76
2024/02/09 08:17:03;;;;;;;18.98;6.85;;;;;;;;;;5059589;28;25146;-76
2024/02/09 08:19:32;;;;;;;19.30;7.13;;;;;;;;;;5058083;28;25060;-76
2024/02/09 08:21:58;;;;;;;13.18;5.47;;;;;;;;;;5061083;28;25056;-77
2024/02/09 08:24:24;;;;;;;12.82;6.07;;;;;;;;;;5059159;28;25073;-76
2024/02/09 08:26:51;;;;;;;10.27;5.15;;;;;;;;;;5053098;28;25089;-76
2024/02/09 08:29:17;;;;;;;12.90;5.78;;;;;;;;;;5058880;28;25153;-75
2024/02/09 08:31:43;;;;;;;9.95;5.90;;;;;;;;;;5062448;28;25059;-76
2024/02/09 08:34:09;;;;;;;13.27;5.43;;;;;;;;;;5058786;28;25057;-78
2024/02/09 08:36:35;;;;;;;13.07;5.32;;;;;;;;;;5053371;28;25063;-77
2024/02/09 08:39:01;;;;;;;13.23;6.05;;;;;;;;;;5060574;28;25081;-75
2024/02/09 08:41:27;;;;;;;8.90;5.30;;;;;;;;;;5056570;28;25106;-76
2024/02/09 08:43:54;;;;;;;11.30;5.22;;;;;;;;;;5058933;28;25052;-76
2024/02/09 08:46:22;;;;;;;11.90;5.45;;;;;;;;;;5055321;28;25103;-76
2024/02/09 08:48:48;;;;;;;12.55;5.65;;;;;;;;;;5063700;28;25060;-76
2024/02/09 08:51:15;;;;;;;15.15;5.82;;;;;;;;;;5070484;28;25051;-73
2024/02/09 08:53:42;;;;;;;12.07;5.22;;;;;;;;;;5068394;28;25062;-75
2024/02/09 08:56:09;;;;;;;12.52;6.00;;;;;;;;;;5073303;28;25077;-77
2024/02/09 08:58:36;;;;;;;13.73;5.70;;;;;;;;;;5066695;28;25044;-77
2024/02/09 09:01:05;;;;;;;11.30;5.90;;;;;;;;;;5064394;28;25080;-77
2024/02/09 09:03:33;;;;;;;16.30;5.80;;;;;;;;;;5068315;28;25141;-77
2024/02/09 09:06:02;;;;;;;14.68;5.80;;;;;;;;;;5060896;28;25065;-77
2024/02/09 09:08:28;;;;;;;11.27;5.72;;;;;;;;;;5062298;28;25079;-75
2024/02/09 09:10:54;;;;;;;17.95;5.57;;;;;;;;;;5065188;28;25120;-76
2024/02/09 09:13:20;;;;;;;13.65;6.60;;;;;;;;;;5066392;28;25069;-75
2024/02/09 09:15:47;;;;;;;13.20;5.22;;;;;;;;;;5057168;28;25062;-75
2024/02/09 09:18:13;;;;;;;12.82;5.57;;;;;;;;;;5055110;28;25122;-76
2024/02/09 09:20:39;;;;;;;12.52;5.25;;;;;;;;;;5057923;28;25106;-77
2024/02/09 09:23:05;;;;;;;7.47;4.30;;;;;;;;;;5058236;28;25052;-77
2024/02/09 09:25:32;;;;;;;13.57;5.00;;;;;;;;;;5058540;28;25049;-76
2024/02/09 09:27:58;;;;;;;12.00;4.70;;;;;;;;;;5059788;28;25050;-77
2024/02/09 09:30:24;;;;;;;14.63;5.03;;;;;;;;;;5056537;28;25071;-76
2024/02/09 09:32:50;;;;;;;10.10;4.32;;;;;;;;;;5054644;28;25045;-77
2024/02/09 09:35:16;;;;;;;13.13;4.03;;;;;;;;;;5061803;28;25064;-77
2024/02/09 09:37:44;;;;;;;11.93;4.45;;;;;;;;;;5055579;28;25077;-77
2024/02/09 09:40:11;;;;;;;7.88;4.38;;;;;;;;;;5050942;28;25068;-74
2024/02/09 09:42:37;;;;;;;11.50;4.57;;;;;;;;;;5059515;28;25078;-76
2024/02/09 09:45:07;;;;;;;9.32;4.13;;;;;;;;;;5060951;28;25161;-78
2024/02/09 09:47:34;;;;;;;12.27;4.03;;;;;;;;;;5050955;28;25153;-78
2024/02/09 09:50:06;;;;;;;9.00;3.97;;;;;;;;;;5058664;28;25069;-80
2024/02/09 09:52:38;;;;;;;7.00;4.15;;;;;;;;;;5049080;28;25176;-76
2024/02/09 09:55:04;;;;;;;;;;;;;;;;;;5053268;28;25068;-75
2024/02/09 09:57:30;;;;;;;8.23;3.50;;;;;;;;;;5055569;28;24075;-80
2024/02/09 09:59:57;;;;;;;8.50;3.17;;;;;;;;;;5065848;28;25094;-78
2024/02/09 10:02:23;;;;;;;9.55;3.60;;;;;;;;;;5054927;28;25078;-77
2024/02/09 10:04:49;;;;;;;10.23;3.38;;;;;;;;;;5066450;28;25153;-75
2024/02/09 10:07:19;;;;;;;5.70;2.88;;;;;;;;;;5059783;28;25059;-77
2024/02/09 10:09:46;;;;;;;6.70;3.75;;;;;;;;;;5070960;28;25070;-75
2024/02/09 10:12:13;;;;;;;7.35;3.75;;;;;;;;;;5041216;28;25077;-77
2024/02/09 10:14:41;;;;;;;10.68;4.20;;;;;;;;;;5039552;28;25053;-77
2024/02/09 10:17:11;;;;;;;8.98;4.28;;;;;;;;;;5049560;28;25040;-75
2024/02/09 10:19:38;;;;;;;9.48;4.07;;;;;;;;;;5064062;28;25181;-76
2024/02/09 10:22:04;;;;;;;11.40;4.55;;;;;;;;;;5063851;28;25117;-78
2024/02/09 10:24:30;;;;;;;5.53;3.67;;;;;;;;;;5061615;28;25074;-77
2024/02/09 10:26:56;;;;;;;11.35;4.15;;;;;;;;;;5061491;28;25168;-76
2024/02/09 10:29:26;;;;;;;11.43;4.00;;;;;;;;;;5057595;28;25052;-76
2024/02/09 10:31:55;;;;;;;9.77;4.38;;;;;;;;;;5062269;28;25075;-77
2024/02/09 10:34:23;;;;;;;8.82;4.32;;;;;;;;;;5063834;28;25061;-80
2024/02/09 10:36:49;;;;;;;13.73;4.85;;;;;;;;;;5059699;28;25061;-77
2024/02/09 10:39:24;;;;;;;10.57;3.97;;;;;;;;;;5066145;28;25151;-77
2024/02/09 10:41:53;;;;;;;10.50;4.00;;;;;;;;;;5028400;28;25061;-78
2024/02/09 10:44:20;;;;;;;9.27;4.30;;;;;;;;;;5056292;28;25086;-77
2024/02/09 10:46:47;;;;;;;13.45;4.07;;;;;;;;;;5052470;28;25049;-77
2024/02/09 10:49:14;;;;;;;9.57;3.33;;;;;;;;;;5057542;28;25056;-79
2024/02/09 10:51:41;;;;;;;8.38;4.05;;;;;;;;;;5052490;28;25166;-78
2024/02/09 10:54:10;;;;;;;9.98;3.25;;;;;;;;;;5055809;28;24823;-77
2024/02/09 10:56:40;;;;;;;12.80;4.30;;;;;;;;;;5059899;28;25061;-78
2024/02/09 10:59:07;;;;;;;12.98;3.67;;;;;;;;;;5059436;28;25064;-76
2024/02/09 11:01:36;;;;;;;15.82;4.15;;;;;;;;;;5062062;28;25047;-75
2024/02/09 11:04:04;;;;;;;14.80;4.00;;;;;;;;;;5061215;28;25075;-76
2024/02/09 11:06:30;;;;;;;9.95;3.72;;;;;;;;;;5058457;28;25076;-79
2024/02/09 11:08:57;;;;;;;14.45;4.10;;;;;;;;;;5062582;28;25078;-76
2024/02/09 11:11:27;;;;;;;15.02;4.18;;;;;;;;;;5054106;28;25063;-77
2024/02/09 11:14:04;;;;;;;14.32;3.88;;;;;;;;;;5054971;28;25075;-75
2024/02/09 11:16:30;;;;;;;13.45;3.95;;;;;;;;;;5056892;28;25077;-78
2024/02/09 11:18:56;;;;;;;11.02;4.40;;;;;;;;;;5056903;28;25086;-74
2024/02/09 11:21:22;;;;;;;13.10;3.97;;;;;;;;;;5059960;28;25049;-74
2024/02/09 11:23:48;;;;;;;11.98;4.50;;;;;;;;;;5054267;28;25165;-73
2024/02/09 11:26:15;;;;;;;14.15;4.00;;;;;;;;;;5056494;28;25105;-75
2024/02/09 11:28:41;;;;;;;10.63;4.00;;;;;;;;;;5053713;28;25070;-73
2024/02/09 11:31:10;;;;;;;12.95;4.55;;;;;;;;;;5063191;28;25057;-74
2024/02/09 11:33:37;;;;;;;8.20;3.53;;;;;;;;;;5060457;28;25089;-74
2024/02/09 11:36:03;;;;;;;13.32;4.07;;;;;;;;;;5055738;28;25129;-74
2024/02/09 11:38:29;;;;;;;13.60;3.20;;;;;;;;;;5066000;28;25102;-73
2024/02/09 11:40:57;;;;;;;8.90;2.80;;;;;;;;;;5066982;28;25054;-73
2024/02/09 11:43:25;;;;;;;10.10;2.63;;;;;;;;;;5068808;28;25050;-75
2024/02/09 11:45:53;;;;;;;6.90;2.63;;;;;;;;;;5065485;28;25065;-76
2024/02/09 11:48:20;;;;;;;11.52;2.60;;;;;;;;;;5060971;28;25067;-76
2024/02/09 11:50:46;;;;;;;11.55;2.50;;;;;;;;;;5054185;28;25142;-74
2024/02/09 11:53:12;;;;;;;5.55;2.38;;;;;;;;;;5052727;28;25057;-74
2024/02/09 11:55:42;;;;;;;8.60;3.03;;;;;;;;;;5054135;28;25068;-76
2024/02/09 11:58:09;;;;;;;8.50;3.75;;;;;;;;;;5056127;28;25097;-75
2024/02/09 12:00:36;;;;;;;15.65;3.22;;;;;;;;;;5055639;28;25105;-74
2024/02/09 12:03:04;;;;;;;13.38;2.80;;;;;;;;;;5051171;28;25041;-75
2024/02/09 12:05:34;;;;;;;8.68;2.95;;;;;;;;;;5057291;28;25073;-73
2024/02/09 12:08:00;;;;;;;16.23;3.53;;;;;;;;;;5056844;28;25165;-77
2024/02/09 12:10:26;;;;;;;8.85;3.00;;;;;;;;;;5053620;28;25069;-73
2024/02/09 12:12:52;;;;;;;7.43;3.22;;;;;;;;;;5059225;28;25103;-73
2024/02/09 12:15:19;;;;;;;13.25;3.72;;;;;;;;;;5056094;28;25028;-73
2024/02/09 12:17:46;;;;;;;9.38;3.75;;;;;;;;;;5059461;28;25058;-77
2024/02/09 12:20:14;;;;;;;6.93;2.95;;;;;;;;;;5056035;28;25084;-75
2024/02/09 12:22:41;;;;;;;9.80;3.45;;;;;;;;;;5051218;28;25147;-75
2024/02/09 12:25:11;;;;;;;10.38;3.10;;;;;;;;;;5055706;28;25140;-74
2024/02/09 12:27:38;;;;;;;12.25;3.72;;;;;;;;;;5050664;28;25079;-74
2024/02/09 12:30:09;;;;;;;10.15;3.72;;;;;;;;;;5057806;28;25072;-75
2024/02/09 12:32:38;;;;;;;10.10;3.40;;;;;;;;;;5058179;28;25064;-77
2024/02/09 12:35:04;;;;;;;6.72;2.40;;;;;;;;;;5073749;28;25058;-79
2024/02/09 12:37:31;;;;;;;12.52;2.63;;;;;;;;;;5054532;28;25058;-76
2024/02/09 12:39:59;;;;;;;11.88;2.90;;;;;;;;;;5052883;28;25070;-76
2024/02/09 12:42:34;;;;;;;5.00;2.30;;;;;;;;;;5050400;28;25158;-74
2024/02/09 12:45:00;;;;;;;10.32;3.10;;;;;;;;;;5050151;28;25056;-74
2024/02/09 12:47:26;;;;;;;6.95;2.58;;;;;;;;;;5055288;28;25100;-73
2024/02/09 12:49:54;;;;;;;10.00;2.00;;;;;;;;;;5058448;28;25067;-75
2024/02/09 12:52:25;;;;;;;8.77;2.25;;;;;;;;;;5056544;28;25049;-75
2024/02/09 12:54:54;;;;;;;7.30;2.03;;;;;;;;;;5063280;28;25159;-75
2024/02/09 12:57:20;;;;;;;8.02;2.00;;;;;;;;;;5063688;28;25130;-74
2024/02/09 12:59:46;;;;;;;5.65;2.63;;;;;;;;;;5062474;28;25104;-77
2024/02/09 13:02:12;;;;;;;5.88;1.85;;;;;;;;;;5058325;28;25062;-74
2024/02/09 13:04:38;;;;;;;3.08;1.83;;;;;;;;;;5052571;28;25063;-73
2024/02/09 13:07:06;;;;;;;7.22;2.05;;;;;;;;;;5058580;28;25110;-78
2024/02/09 13:09:35;;;;;;;6.18;2.92;;;;;;;;;;5049986;28;25062;-75
2024/02/09 13:12:01;;;;;;;6.10;1.90;;;;;;;;;;5051804;28;25072;-74
2024/02/09 13:14:27;;;;;;;8.45;2.40;;;;;;;;;;5064526;28;25091;-75
2024/02/09 13:16:53;;;;;;;9.85;2.30;;;;;;;;;;5056121;28;25062;-75
2024/02/09 13:19:19;;;;;;;9.13;2.65;;;;;;;;;;5063986;28;25159;-76
2024/02/09 13:21:54;;;;;;;5.93;2.00;;;;;;;;;;5062117;28;25063;-74
2024/02/09 13:24:20;;;;;;;5.97;2.35;;;;;;;;;;5061362;28;25085;-77
2024/02/09 13:26:50;;;;;;;8.57;3.13;;;;;;;;;;5060078;28;25067;-78
2024/02/09 13:29:22;;;;;;;7.47;2.30;;;;;;;;;;5056767;28;25057;-75
2024/02/09 13:31:50;;;;;;;8.80;2.53;;;;;;;;;;5059590;28;25067;-76
2024/02/09 13:34:16;;;;;;;9.60;2.70;;;;;;;;;;5056488;28;25077;-72
2024/02/09 13:36:42;;;;;;;12.95;3.00;;;;;;;;;;5053222;28;25066;-77
2024/02/09 13:39:08;;;;;;;12.50;4.38;;;;;;;;;;5048441;28;25054;-73
2024/02/09 13:41:34;;;;;;;10.13;3.08;;;;;;;;;;5059518;28;25143;-77
2024/02/09 13:44:00;;;;;;;7.85;3.25;;;;;;;;;;5053131;28;25056;-74
2024/02/09 13:46:28;;;;;;;7.28;2.38;;;;;;;;;;5057237;28;25052;-74
2024/02/09 13:48:54;;;;;;;10.25;2.33;;;;;;;;;;5053907;28;25058;-77
2024/02/09 13:51:25;;;;;;;10.07;2.40;;;;;;;;;;5060276;28;25080;-75
2024/02/09 13:53:51;;;;;;;13.40;2.72;;;;;;;;;;5048618;28;25085;-78
2024/02/09 13:56:18;;;;;;;8.75;2.15;;;;;;;;;;5052842;28;25062;-77
2024/02/09 13:58:44;;;;;;;6.68;2.42;;;;;;;;;;5052260;28;25070;-79
2024/02/09 14:01:11;;;;;;;9.45;2.10;;;;;;;;;;5063243;28;25113;-76
2024/02/09 14:03:37;;;;;;;12.15;2.42;;;;;;;;;;5050370;28;25106;-74
2024/02/09 14:06:03;;;;;;;8.98;2.00;;;;;;;;;;5053940;28;25046;-76
2024/02/09 14:08:32;;;;;;;9.00;2.55;;;;;;;;;;5054308;28;25057;-74
2024/02/09 14:10:58;;;;;;;6.60;2.20;;;;;;;;;;5062365;28;25051;-75
2024/02/09 14:13:24;;;;;;;7.57;2.10;;;;;;;;;;5062787;28;25068;-74
2024/02/09 14:15:50;;;;;;;6.70;2.00;;;;;;;;;;5066828;28;25102;-74
2024/02/09 14:18:18;;;;;;;6.68;1.95;;;;;;;;;;5066901;28;25070;-74
2024/02/09 14:20:49;;;;;;;5.10;2.15;;;;;;;;;;5068631;28;25098;-73
2024/02/09 14:23:15;;;;;;;9.77;2.00;;;;;;;;;;5071066;28;25131;-76
2024/02/09 14:25:44;;;;;;;6.95;2.42;;;;;;;;;;5057654;28;25081;-75
2024/02/09 14:28:10;;;;;;;7.68;1.90;;;;;;;;;;5062595;28;25093;-74
2024/02/09 14:30:37;;;;;;;11.93;2.28;;;;;;;;;;5069906;28;25153;-76
2024/02/09 14:33:04;;;;;;;6.95;1.98;;;;;;;;;;5058522;28;25078;-77
2024/02/09 14:35:30;;;;;;;7.93;1.80;;;;;;;;;;5050416;28;25058;-72
2024/02/09 14:37:56;;;;;;;6.13;2.10;;;;;;;;;;5047189;28;25053;-76
2024/02/09 14:40:22;;;;;;;11.52;2.20;;;;;;;;;;5048997;28;25093;-77
2024/02/09 14:42:48;;;;;;;8.23;1.85;;;;;;;;;;5046605;28;25104;-74
2024/02/09 14:45:15;;;;;;;10.23;2.05;;;;;;;;;;5048093;28;25091;-73
2024/02/09 14:47:43;;;;;;;6.90;1.70;;;;;;;;;;5043551;28;25093;-74
2024/02/09 14:50:09;;;;;;;7.15;1.65;;;;;;;;;;5056485;28;25158;-76
2024/02/09 14:52:35;;;;;;;8.20;1.70;;;;;;;;;;5054551;28;25075;-75
2024/02/09 14:55:02;;;;;;;7.97;1.95;;;;;;;;;;5059588;28;25162;-75
2024/02/09 14:57:28;;;;;;;5.18;1.70;;;;;;;;;;5051542;28;25091;-71
2024/02/09 14:59:54;;;;;;;7.13;2.08;;;;;;;;;;5054446;28;25059;-75
2024/02/09 15:02:20;;;;;;;4.07;1.58;;;;;;;;;;5049841;28;25061;-74
2024/02/09 15:04:50;;;;;;;7.32;1.67;;;;;;;;;;5052247;28;25119;-72
2024/02/09 15:07:19;;;;;;;6.13;1.60;;;;;;;;;;5058950;28;25073;-74
2024/02/09 15:09:45;;;;;;;7.60;1.65;;;;;;;;;;5045652;28;25073;-72
2024/02/09 15:12:15;;;;;;;4.45;1.40;;;;;;;;;;5061295;28;25108;-71
2024/02/09 15:14:42;;;;;;;6.53;1.95;;;;;;;;;;5056349;28;25063;-72
2024/02/09 15:17:11;;;;;;;4.38;1.70;;;;;;;;;;5059388;28;25164;-77
2024/02/09 15:19:37;;;;;;;3.60;1.55;;;;;;;;;;5075885;28;25064;-73
2024/02/09 15:22:04;;;;;;;4.03;1.60;;;;;;;;;;5055405;28;25095;-72
2024/02/09 15:24:30;;;;;;;10.02;2.10;;;;;;;;;;5059453;28;25070;-76
2024/02/09 15:26:56;;;;;;;6.07;2.10;;;;;;;;;;5061324;28;25143;-74
2024/02/09 15:29:24;;;;;;;3.33;1.60;;;;;;;;;;5058400;28;25071;-75
2024/02/09 15:31:50;;;;;;;11.95;1.75;;;;;;;;;;5061127;28;25084;-73
2024/02/09 15:34:17;;;;;;;7.57;1.63;;;;;;;;;;5054461;28;25095;-78
2024/02/09 15:36:45;;;;;;;6.25;1.38;;;;;;;;;;5065152;28;25142;-75
2024/02/09 15:39:14;;;;;;;6.85;1.38;;;;;;;;;;5054032;28;25046;-72
2024/02/09 15:41:43;;;;;;;3.38;1.27;;;;;;;;;;5059032;28;25112;-74
2024/02/09 15:44:09;;;;;;;3.97;1.42;;;;;;;;;;5057039;28;25133;-72
2024/02/09 15:46:35;;;;;;;4.85;1.23;;;;;;;;;;5061242;28;25069;-73
2024/02/09 15:49:04;;;;;;;4.28;1.40;;;;;;;;;;5055945;28;25092;-74
2024/02/09 15:51:30;;;;;;;5.38;1.45;;;;;;;;;;5057975;28;25065;-73
2024/02/09 15:53:59;;;;;;;5.68;2.10;;;;;;;;;;5055925;28;25047;-73
2024/02/09 15:56:31;;;;;;;12.43;2.65;;;;;;;;;;5054684;28;25070;-72
2024/02/09 15:58:58;;;;;;;5.38;1.98;;;;;;;;;;5054990;28;25076;-75
2024/02/09 16:01:24;;;;;;;7.38;2.13;;;;;;;;;;5059276;28;25142;-74
2024/02/09 16:03:51;;;;;;;8.88;1.95;;;;;;;;;;5065746;28;25062;-77
2024/02/09 16:06:18;;;;;;;7.32;1.95;;;;;;;;;;5063878;28;25075;-78
2024/02/09 16:08:44;;;;;;;5.18;1.85;;;;;;;;;;5054556;28;25071;-77
2024/02/09 16:11:10;;;;;;;5.97;2.17;;;;;;;;;;5057305;28;25048;-75
2024/02/09 16:13:40;;;;;;;7.43;2.17;;;;;;;;;;5063318;28;25158;-72
2024/02/09 16:16:07;;;;;;;5.25;2.40;;;;;;;;;;5057485;28;25076;-75
2024/02/09 16:18:35;;;;;;;9.38;2.55;;;;;;;;;;5052443;28;25098;-75
2024/02/09 16:21:01;;;;;;;6.68;2.22;;;;;;;;;;5055192;28;25100;-73